Portada
METAR-TAF:

METAR-TAF

Aeropuertos :

Majuro, Islas Marshall

Aeropuerto Internacional Amata Kabua

latitud: 07-04N, longitud: 171-17E, altitud: 2 m

Observación

El informe se hizo hace 1 hora y 9 minutos, a las 00:57 UTC
Viento 9 kt del este-sureste
Temperatura 30°C
Humedad 75%
Presión 1008 hPa
Visibilidad: 24.1 km
Escasas nubes a una altura de 1500 ft
Nubes dispersas a una altura de 5000 ft
Cielo nuboso a una altura de 30000 ft

METAR: PKMJ 230057Z 11009KT 15SM FEW015 SCT050 BKN300 30/25 A2976 RMK LAST

Hora: 14:06 (02:06 UTC)

Pronóstico

El informe se hizo hace 2 horas y 40 minutos, a las 23:26 UTC
Pronóstico válido del 23 a las 00 UTC al 23 a las 24 UTC
Viento 8 kt del este
Visibilidad: 10 km
Escasas nubes a una altura de 1500 ft
Escasas nubes a una altura de 5000 ft
Nubes dispersas a una altura de 12000 ft

TAF: PKMJ 222326Z 2300/2324 10008KT P6SM FEW015 FEW050 SCT120

Observaciones y pronósticos meteorológicos de más de 4000 aeropuertos (mensajes METAR y TAF).

Los puntos amarillos y rojos representan las estaciones disponibles.

Ponga el ratón en el punto deseado para ver el nombre de la estación.

Haga clic para ver las observaciones y los pronósticos meteorológicos.

Para cambiar el mapa : haga clic en los botones verdes con una cruz de color negro para hacer un zoom, en el botón verde con un guión para alejar o en las flechas verdes para mapas adyacentes.


METAR-TAF: